createdAt,value
2017-11-08T00:01:27.288Z,7.82
2017-11-08T00:03:55.584Z,7.99
2017-11-08T00:06:23.869Z,8.15
2017-11-08T00:08:52.146Z,8.16
2017-11-08T00:11:20.436Z,8.17
2017-11-08T00:13:49.478Z,8.19
2017-11-08T00:16:17.765Z,8.32
2017-11-08T00:18:46.058Z,8.19
2017-11-08T00:21:14.336Z,8.43
2017-11-08T00:23:42.620Z,8.30
2017-11-08T00:26:10.912Z,8.18
2017-11-08T00:28:39.218Z,8.29
2017-11-08T00:31:07.504Z,8.38
2017-11-08T00:33:35.806Z,8.43
2017-11-08T00:36:04.090Z,8.47
2017-11-08T00:38:32.376Z,8.52
2017-11-08T00:41:00.674Z,8.61
2017-11-08T00:43:29.725Z,8.65
2017-11-08T00:45:58.025Z,8.76
2017-11-08T00:48:26.322Z,8.59
2017-11-08T00:50:54.613Z,8.66
2017-11-08T00:53:22.905Z,8.86
2017-11-08T00:55:51.184Z,8.80
2017-11-08T00:58:19.465Z,8.81
2017-11-08T01:00:47.749Z,8.34
2017-11-08T01:03:16.032Z,8.31
2017-11-08T01:05:44.331Z,8.41
2017-11-08T01:08:12.620Z,8.41
2017-11-08T01:10:40.981Z,8.55
2017-11-08T01:13:09.274Z,8.74
2017-11-08T01:15:37.566Z,8.91
2017-11-08T01:18:05.864Z,8.92
2017-11-08T01:20:34.147Z,8.89
2017-11-08T01:23:02.449Z,8.99
2017-11-08T01:25:30.889Z,9.11
2017-11-08T01:27:59.165Z,9.03
2017-11-08T01:30:27.468Z,8.97
2017-11-08T01:32:55.773Z,8.88
2017-11-08T01:35:24.058Z,8.95
2017-11-08T01:37:55.552Z,8.50
2017-11-08T01:40:23.837Z,8.62
2017-11-08T01:42:52.128Z,8.53
2017-11-08T01:45:20.424Z,8.03
2017-11-08T01:47:48.717Z,7.85
2017-11-08T01:50:17.075Z,7.85
2017-11-08T01:52:45.346Z,7.53
2017-11-08T01:55:13.659Z,7.60
2017-11-08T01:57:41.944Z,7.80
2017-11-08T02:00:11.046Z,7.69
2017-11-08T02:02:39.330Z,7.88
2017-11-08T02:05:07.621Z,8.10
2017-11-08T02:07:35.908Z,8.32
2017-11-08T02:10:04.230Z,8.36
2017-11-08T02:12:32.520Z,8.37
2017-11-08T02:15:01.577Z,8.31
2017-11-08T02:17:29.894Z,8.50
2017-11-08T02:19:58.968Z,8.62
2017-11-08T02:22:27.252Z,8.84
2017-11-08T02:24:56.316Z,8.86
2017-11-08T02:27:30.073Z,8.89
2017-11-08T02:29:58.365Z,8.78
2017-11-08T02:32:26.651Z,8.93
2017-11-08T02:34:54.931Z,8.70
2017-11-08T02:37:23.209Z,8.60
2017-11-08T02:39:51.532Z,8.84
2017-11-08T02:42:19.815Z,8.78
2017-11-08T02:44:49.433Z,8.82
2017-11-08T02:47:18.483Z,8.98
2017-11-08T02:49:46.755Z,9.05
2017-11-08T02:52:15.064Z,9.09
2017-11-08T02:54:43.342Z,9.11
2017-11-08T02:57:11.620Z,9.10
2017-11-08T02:59:42.255Z,8.98
2017-11-08T03:02:12.380Z,8.98
2017-11-08T03:04:47.357Z,8.84
2017-11-08T03:07:15.658Z,8.72
2017-11-08T03:09:43.942Z,8.73
2017-11-08T03:12:12.225Z,8.81
2017-11-08T03:14:40.515Z,8.66
2017-11-08T03:17:08.805Z,8.60
2017-11-08T03:19:38.767Z,8.73
2017-11-08T03:22:07.058Z,8.82
2017-11-08T03:24:35.355Z,8.84
2017-11-08T03:27:03.641Z,9.00
2017-11-08T03:29:31.939Z,9.00
2017-11-08T03:32:00.237Z,8.90
2017-11-08T03:34:28.572Z,8.83
2017-11-08T03:36:56.853Z,8.91
2017-11-08T03:39:26.055Z,8.99
2017-11-08T03:41:54.327Z,9.03
2017-11-08T03:44:22.606Z,8.93
2017-11-08T03:46:50.896Z,8.68
2017-11-08T03:49:19.176Z,8.67
2017-11-08T03:51:47.456Z,8.63
2017-11-08T03:54:15.741Z,8.53
2017-11-08T03:56:44.609Z,8.39
2017-11-08T03:59:12.897Z,8.63
2017-11-08T04:01:41.993Z,8.67
2017-11-08T04:04:10.277Z,8.70
2017-11-08T04:06:38.572Z,8.73
2017-11-08T04:09:06.997Z,8.87
2017-11-08T04:11:35.292Z,8.75
2017-11-08T04:14:03.589Z,8.82
2017-11-08T04:16:31.877Z,8.80
2017-11-08T04:19:00.819Z,8.60
2017-11-08T04:21:29.117Z,8.36
2017-11-08T04:23:57.392Z,8.35
2017-11-08T04:26:25.696Z,8.43
2017-11-08T04:28:53.999Z,8.35
2017-11-08T04:31:24.263Z,8.44
2017-11-08T04:33:52.553Z,8.40
2017-11-08T04:36:20.845Z,8.34
2017-11-08T04:38:49.143Z,8.30
2017-11-08T04:41:17.429Z,8.45
2017-11-08T04:43:46.696Z,8.56
2017-11-08T04:46:14.984Z,8.43
2017-11-08T04:48:43.277Z,8.31
2017-11-08T04:51:11.608Z,8.40
2017-11-08T04:53:39.898Z,8.54
2017-11-08T04:56:08.193Z,8.71
2017-11-08T04:58:36.489Z,8.83
2017-11-08T05:01:04.782Z,8.86
2017-11-08T05:03:33.087Z,8.85
2017-11-08T05:06:01.375Z,8.88
2017-11-08T05:08:29.673Z,8.83
2017-11-08T05:10:57.960Z,8.84
2017-11-08T05:13:26.247Z,8.85
2017-11-08T05:15:54.528Z,9.00
2017-11-08T05:18:25.850Z,9.04
2017-11-08T05:20:54.138Z,8.99
2017-11-08T05:23:22.427Z,8.95
2017-11-08T05:25:50.731Z,8.86
2017-11-08T05:28:19.013Z,8.90
2017-11-08T05:30:47.305Z,8.73
2017-11-08T05:33:15.595Z,8.78
2017-11-08T05:35:43.890Z,8.86
2017-11-08T05:38:12.181Z,8.86
2017-11-08T05:40:40.476Z,8.82
2017-11-08T05:43:08.775Z,8.81
2017-11-08T05:45:37.056Z,8.86
2017-11-08T05:48:05.336Z,8.95
2017-11-08T05:50:33.621Z,9.02
2017-11-08T05:53:01.912Z,9.01
2017-11-08T05:55:30.200Z,8.83
2017-11-08T05:57:58.475Z,8.65
2017-11-08T06:00:26.778Z,8.50
2017-11-08T06:02:55.101Z,8.74
2017-11-08T06:05:23.385Z,8.88
2017-11-08T06:07:51.956Z,8.93
2017-11-08T06:10:20.248Z,9.03
2017-11-08T06:12:48.525Z,9.05
2017-11-08T06:15:16.848Z,8.95
2017-11-08T06:17:45.143Z,8.91
2017-11-08T06:20:13.454Z,8.99
2017-11-08T06:22:41.741Z,8.88
2017-11-08T06:25:10.030Z,8.89
2017-11-08T06:27:38.336Z,8.93
2017-11-08T06:30:06.677Z,8.83
2017-11-08T06:32:34.963Z,8.85
2017-11-08T06:35:03.242Z,9.02
2017-11-08T06:37:31.540Z,9.03
2017-11-08T06:39:59.824Z,9.14
2017-11-08T06:42:28.138Z,8.94
2017-11-08T06:44:56.411Z,8.98
2017-11-08T06:47:24.717Z,8.96
2017-11-08T06:49:53.966Z,8.99
2017-11-08T06:52:22.252Z,9.04
2017-11-08T06:54:50.541Z,9.00
2017-11-08T06:57:22.488Z,9.13
2017-11-08T06:59:50.768Z,9.25
2017-11-08T07:02:19.055Z,9.22
2017-11-08T07:04:47.337Z,9.21
2017-11-08T07:07:15.620Z,9.19
2017-11-08T07:09:43.909Z,9.05
2017-11-08T07:12:12.196Z,9.09
2017-11-08T07:14:40.501Z,9.19
2017-11-08T07:17:10.316Z,9.26
2017-11-08T07:19:38.602Z,9.35
2017-11-08T07:22:06.885Z,9.35
2017-11-08T07:24:35.180Z,9.33
2017-11-08T07:27:03.463Z,9.38
2017-11-08T07:29:31.750Z,9.19
2017-11-08T07:32:00.038Z,9.30
2017-11-08T07:34:28.320Z,9.34
2017-11-08T07:36:59.557Z,9.26
2017-11-08T07:39:27.855Z,9.21
2017-11-08T07:41:57.625Z,9.04
2017-11-08T07:44:25.947Z,9.00
2017-11-08T07:46:55.044Z,9.22
2017-11-08T07:49:23.347Z,9.08
2017-11-08T07:51:51.624Z,9.11
2017-11-08T07:54:19.920Z,9.20
2017-11-08T07:56:48.892Z,9.10
2017-11-08T07:59:20.036Z,9.16
2017-11-08T08:01:48.322Z,9.22
2017-11-08T08:04:16.600Z,8.99
2017-11-08T08:06:45.457Z,8.84
2017-11-08T08:09:13.739Z,8.88
2017-11-08T08:11:42.027Z,8.83
2017-11-08T08:14:10.312Z,8.73
2017-11-08T08:16:38.601Z,8.81
2017-11-08T08:19:06.884Z,8.98
2017-11-08T08:21:35.176Z,8.90
2017-11-08T08:24:03.483Z,9.00
2017-11-08T08:26:31.772Z,9.14
2017-11-08T08:29:00.993Z,8.85
2017-11-08T08:31:29.300Z,8.98
2017-11-08T08:33:57.584Z,9.16
2017-11-08T08:36:25.869Z,9.34
2017-11-08T08:38:54.167Z,9.30
2017-11-08T08:41:22.789Z,9.43
2017-11-08T08:43:51.065Z,9.47
2017-11-08T08:46:19.353Z,9.51
2017-11-08T08:48:53.947Z,9.65
2017-11-08T08:51:22.847Z,9.47
2017-11-08T08:53:51.131Z,9.52
2017-11-08T08:56:19.409Z,9.68
2017-11-08T08:58:47.692Z,9.82
2017-11-08T09:01:15.969Z,9.91
2017-11-08T09:03:44.256Z,9.88
2017-11-08T09:06:12.540Z,9.83
2017-11-08T09:08:40.856Z,10.10
2017-11-08T09:11:12.957Z,10.15
2017-11-08T09:13:41.249Z,10.14
2017-11-08T09:16:09.542Z,10.08
2017-11-08T09:18:37.842Z,10.05
2017-11-08T09:21:06.901Z,9.79
2017-11-08T09:23:35.219Z,9.83
2017-11-08T09:26:03.846Z,9.82
2017-11-08T09:28:32.117Z,9.85
2017-11-08T09:31:00.407Z,9.96
2017-11-08T09:33:28.697Z,9.79
2017-11-08T09:35:56.982Z,9.87
2017-11-08T09:38:25.254Z,10.01
2017-11-08T09:40:53.540Z,10.04
2017-11-08T09:43:22.083Z,9.88
2017-11-08T09:45:50.389Z,10.04
2017-11-08T09:48:18.681Z,9.99
2017-11-08T09:50:47.744Z,10.15
2017-11-08T09:53:16.029Z,10.04
2017-11-08T09:55:44.313Z,10.03
2017-11-08T09:58:12.608Z,10.11
2017-11-08T10:00:41.520Z,9.96
2017-11-08T10:03:09.813Z,9.58
2017-11-08T10:05:38.088Z,9.65
2017-11-08T10:08:12.744Z,9.75
2017-11-08T10:10:45.835Z,9.86
2017-11-08T10:13:14.115Z,9.88
2017-11-08T10:15:42.912Z,9.84
2017-11-08T10:18:14.127Z,9.89
2017-11-08T10:20:42.412Z,9.84
2017-11-08T10:23:10.696Z,9.97
2017-11-08T10:25:39.063Z,10.15
2017-11-08T10:28:07.351Z,10.15
2017-11-08T10:30:35.659Z,10.32
2017-11-08T10:33:03.960Z,10.34
2017-11-08T10:35:32.256Z,10.22
2017-11-08T10:38:00.553Z,10.34
2017-11-08T10:40:28.839Z,10.28
2017-11-08T10:42:57.119Z,10.38
2017-11-08T10:45:26.171Z,10.13
2017-11-08T10:47:55.398Z,10.26
2017-11-08T10:50:24.458Z,10.24
2017-11-08T10:52:54.665Z,10.23
2017-11-08T10:55:22.969Z,10.26
2017-11-08T10:57:51.262Z,10.23
2017-11-08T11:00:25.848Z,10.22
2017-11-08T11:02:57.999Z,10.28
2017-11-08T11:05:26.288Z,10.33
2017-11-08T11:07:54.581Z,10.43
2017-11-08T11:10:22.881Z,10.51
2017-11-08T11:12:51.204Z,10.52
2017-11-08T11:15:19.497Z,10.72
2017-11-08T11:17:47.797Z,10.89
2017-11-08T11:20:18.916Z,10.66
2017-11-08T11:22:47.209Z,10.76
2017-11-08T11:25:17.461Z,10.92
2017-11-08T11:27:45.772Z,10.72
2017-11-08T11:30:14.062Z,10.69
2017-11-08T11:32:44.285Z,10.72
2017-11-08T11:35:12.577Z,10.75
2017-11-08T11:37:46.417Z,10.77
2017-11-08T11:40:14.709Z,10.77
2017-11-08T11:42:43.811Z,10.78
2017-11-08T11:45:12.113Z,10.85
2017-11-08T11:47:40.413Z,10.66
2017-11-08T11:50:08.701Z,10.64
2017-11-08T11:52:36.997Z,10.43
2017-11-08T11:55:05.305Z,10.49
2017-11-08T11:57:33.610Z,10.61
2017-11-08T12:00:02.714Z,10.70
2017-11-08T12:02:31.041Z,10.64
2017-11-08T12:05:00.100Z,10.48
2017-11-08T12:07:28.404Z,10.30
2017-11-08T12:09:57.509Z,10.14
2017-11-08T12:12:25.805Z,10.14
2017-11-08T12:14:54.107Z,9.97
2017-11-08T12:17:22.389Z,9.95
2017-11-08T12:19:50.685Z,10.09
2017-11-08T12:22:18.977Z,10.02
2017-11-08T12:24:47.490Z,10.13
2017-11-08T12:27:15.769Z,10.32
2017-11-08T12:29:44.076Z,10.47
2017-11-08T12:32:12.373Z,10.56
2017-11-08T12:34:40.678Z,10.68
2017-11-08T12:37:09.841Z,10.69
2017-11-08T12:39:38.153Z,10.87
2017-11-08T12:42:12.786Z,10.75
2017-11-08T12:44:47.282Z,10.96
2017-11-08T12:47:15.585Z,10.88
2017-11-08T12:49:43.879Z,10.94
2017-11-08T12:52:12.169Z,10.96
2017-11-08T12:54:40.461Z,10.90
2017-11-08T12:57:08.756Z,10.87
2017-11-08T12:59:37.066Z,10.84
2017-11-08T13:02:05.373Z,10.98
2017-11-08T13:04:33.774Z,10.76
2017-11-08T13:07:02.081Z,10.87
2017-11-08T13:09:33.336Z,10.81
2017-11-08T13:12:01.622Z,10.72
2017-11-08T13:14:30.689Z,10.67
2017-11-08T13:16:58.989Z,10.75
2017-11-08T13:19:28.046Z,10.72
2017-11-08T13:21:56.341Z,10.79
2017-11-08T13:24:24.637Z,10.86
2017-11-08T13:26:53.048Z,10.90
2017-11-08T13:29:21.584Z,10.88
2017-11-08T13:31:49.861Z,10.84
2017-11-08T13:34:18.149Z,10.89
2017-11-08T13:36:46.440Z,10.89
2017-11-08T13:39:14.741Z,10.98
2017-11-08T13:41:43.375Z,11.08
2017-11-08T13:44:13.761Z,11.13
2017-11-08T13:46:42.066Z,11.14
2017-11-08T13:49:13.197Z,11.13
2017-11-08T13:51:41.499Z,11.17
2017-11-08T13:54:10.461Z,11.25
2017-11-08T13:56:38.770Z,11.08
2017-11-08T13:59:07.074Z,10.96
2017-11-08T14:01:35.394Z,10.80
2017-11-08T14:04:07.318Z,10.80
2017-11-08T14:06:35.619Z,10.88
2017-11-08T14:09:03.911Z,10.96
2017-11-08T14:11:32.206Z,10.94
2017-11-08T14:14:00.860Z,11.01
2017-11-08T14:16:29.918Z,11.00
2017-11-08T14:18:58.975Z,11.09
2017-11-08T14:21:27.285Z,11.00
2017-11-08T14:23:56.341Z,11.05
2017-11-08T14:26:24.625Z,10.93
2017-11-08T14:28:52.935Z,10.98
2017-11-08T14:31:21.225Z,11.00
2017-11-08T14:33:50.239Z,10.98
2017-11-08T14:36:18.918Z,10.75
2017-11-08T14:38:47.212Z,10.83
2017-11-08T14:41:15.514Z,10.84
2017-11-08T14:43:43.804Z,10.88
2017-11-08T14:46:12.105Z,10.86
2017-11-08T14:48:40.398Z,10.93
2017-11-08T14:51:09.170Z,10.87
2017-11-08T14:53:41.425Z,10.74
2017-11-08T14:56:09.705Z,10.69
2017-11-08T14:58:38.001Z,10.71
2017-11-08T15:01:06.299Z,10.56
2017-11-08T15:03:34.586Z,10.55
2017-11-08T15:06:02.899Z,10.61
2017-11-08T15:08:31.215Z,10.63
2017-11-08T15:10:59.513Z,10.68
2017-11-08T15:13:27.808Z,10.78
2017-11-08T15:15:56.105Z,10.74
2017-11-08T15:18:24.390Z,10.71
2017-11-08T15:20:52.702Z,10.62
2017-11-08T15:23:21.038Z,10.70
2017-11-08T15:25:49.346Z,10.81
2017-11-08T15:28:17.643Z,10.71
2017-11-08T15:30:45.938Z,10.71
2017-11-08T15:33:14.233Z,10.58
2017-11-08T15:35:42.538Z,10.64
2017-11-08T15:38:10.877Z,10.55
2017-11-08T15:40:39.188Z,10.60
2017-11-08T15:43:08.190Z,10.56
2017-11-08T15:45:36.493Z,10.47
2017-11-08T15:48:04.796Z,10.50
2017-11-08T15:50:33.093Z,10.39
2017-11-08T15:53:01.385Z,10.51
2017-11-08T15:55:29.694Z,10.52
2017-11-08T15:57:57.976Z,10.50
2017-11-08T16:00:26.976Z,10.49
2017-11-08T16:02:55.261Z,10.53
2017-11-08T16:05:23.562Z,10.40
2017-11-08T16:07:51.850Z,10.48
2017-11-08T16:10:20.155Z,10.42
2017-11-08T16:12:51.220Z,10.45
2017-11-08T16:15:19.513Z,10.30
2017-11-08T16:17:52.030Z,10.37
2017-11-08T16:20:21.085Z,10.50
2017-11-08T16:22:49.389Z,10.46
2017-11-08T16:25:17.690Z,10.45
2017-11-08T16:27:46.747Z,10.48
2017-11-08T16:30:15.045Z,10.49
2017-11-08T16:32:43.354Z,10.57
2017-11-08T16:35:11.671Z,10.55
2017-11-08T16:37:39.971Z,10.54
2017-11-08T16:40:08.275Z,10.59
2017-11-08T16:42:36.620Z,10.64
2017-11-08T16:45:04.913Z,10.61
2017-11-08T16:47:34.877Z,10.53
2017-11-08T16:50:03.505Z,10.58
2017-11-08T16:52:31.853Z,10.59
2017-11-08T16:55:00.162Z,10.64
2017-11-08T16:57:28.765Z,10.46
2017-11-08T16:59:57.593Z,10.60
2017-11-08T17:02:25.902Z,10.62
2017-11-08T17:04:54.206Z,10.57
2017-11-08T17:07:22.501Z,10.47
2017-11-08T17:09:50.811Z,10.32
2017-11-08T17:12:19.110Z,10.19
2017-11-08T17:14:47.410Z,10.14
2017-11-08T17:17:15.718Z,10.18
2017-11-08T17:19:44.111Z,10.17
2017-11-08T17:22:12.398Z,10.11
2017-11-08T17:24:40.690Z,10.19
2017-11-08T17:27:08.985Z,10.08
2017-11-08T17:29:37.286Z,10.22
2017-11-08T17:32:05.591Z,10.25
2017-11-08T17:34:33.893Z,10.22
2017-11-08T17:37:02.195Z,10.31
2017-11-08T17:39:30.497Z,10.42
2017-11-08T17:41:58.800Z,10.41
2017-11-08T17:44:27.113Z,10.38
2017-11-08T17:46:55.468Z,10.48
2017-11-08T17:49:23.773Z,10.54
2017-11-08T17:51:52.085Z,10.51
2017-11-08T17:54:20.396Z,10.58
2017-11-08T17:56:48.850Z,10.59
2017-11-08T17:59:17.195Z,10.35
2017-11-08T18:01:45.686Z,10.27
2017-11-08T18:04:14.011Z,10.20
2017-11-08T18:06:42.987Z,10.19
2017-11-08T18:09:11.282Z,10.18
2017-11-08T18:11:39.658Z,10.00
2017-11-08T18:14:07.957Z,9.85
2017-11-08T18:16:36.438Z,9.83
2017-11-08T18:19:06.466Z,9.90
2017-11-08T18:21:34.858Z,9.83
2017-11-08T18:24:03.269Z,9.91
2017-11-08T18:26:31.780Z,9.84
2017-11-08T18:29:01.065Z,9.82
2017-11-08T18:31:29.753Z,9.58
2017-11-08T18:33:58.242Z,9.55
2017-11-08T18:36:27.797Z,9.58
2017-11-08T18:38:57.899Z,9.40
2017-11-08T18:41:27.443Z,9.31
2017-11-08T18:43:56.930Z,9.33
2017-11-08T18:46:26.595Z,9.49
2017-11-08T18:48:57.446Z,9.35
2017-11-08T18:51:27.245Z,9.32
2017-11-08T18:53:58.510Z,9.19
2017-11-08T18:56:28.391Z,9.31
2017-11-08T18:58:58.096Z,9.41
2017-11-08T19:01:27.920Z,9.60
2017-11-08T19:03:57.625Z,9.43
2017-11-08T19:06:27.453Z,9.47
2017-11-08T19:08:57.302Z,9.43
2017-11-08T19:11:27.222Z,9.52
2017-11-08T19:13:57.054Z,9.30
2017-11-08T19:16:27.777Z,9.45
2017-11-08T19:18:57.480Z,9.65
2017-11-08T19:21:28.050Z,9.64
2017-11-08T19:23:57.854Z,9.53
2017-11-08T19:26:28.074Z,9.61
2017-11-08T19:28:58.981Z,9.53
2017-11-08T19:31:28.861Z,9.63
2017-11-08T19:33:58.753Z,9.67
2017-11-08T19:36:28.889Z,9.55
2017-11-08T19:39:00.173Z,9.65
2017-11-08T19:41:30.165Z,9.67
2017-11-08T19:44:00.070Z,9.75
2017-11-08T19:46:29.885Z,9.73
2017-11-08T19:49:01.313Z,9.75
2017-11-08T19:51:31.224Z,9.83
2017-11-08T19:54:01.127Z,9.96
2017-11-08T19:56:31.623Z,10.06
2017-11-08T19:59:01.598Z,10.11
2017-11-08T20:01:32.029Z,10.21
2017-11-08T20:04:02.375Z,10.13
2017-11-08T20:06:33.186Z,10.09
2017-11-08T20:09:03.954Z,9.63
2017-11-08T20:11:34.677Z,9.77
2017-11-08T20:14:04.593Z,9.74
2017-11-08T20:16:34.614Z,9.77
2017-11-08T20:19:04.512Z,9.88
2017-11-08T20:21:34.411Z,10.02
2017-11-08T20:24:04.410Z,10.06
2017-11-08T20:26:34.583Z,10.05
2017-11-08T20:29:05.239Z,10.10
2017-11-08T20:31:35.311Z,10.15
2017-11-08T20:34:05.231Z,10.21
2017-11-08T20:36:35.033Z,10.25
2017-11-08T20:39:05.122Z,10.19
2017-11-08T20:41:35.079Z,9.95
2017-11-08T20:44:05.041Z,9.77
2017-11-08T20:46:35.214Z,9.82
2017-11-08T20:49:06.083Z,9.82
2017-11-08T20:51:37.102Z,9.94
2017-11-08T20:54:06.933Z,9.78
2017-11-08T20:56:37.642Z,9.90
2017-11-08T20:59:08.218Z,9.89
2017-11-08T21:01:38.058Z,9.81
2017-11-08T21:04:07.889Z,9.73
2017-11-08T21:06:37.711Z,9.53
2017-11-08T21:09:07.687Z,9.36
2017-11-08T21:11:37.674Z,9.13
2017-11-08T21:14:07.575Z,9.40
2017-11-08T21:16:37.325Z,9.51
2017-11-08T21:19:07.128Z,9.26
2017-11-08T21:21:38.751Z,9.29
2017-11-08T21:24:08.525Z,9.21
2017-11-08T21:26:38.407Z,9.11
2017-11-08T21:29:08.106Z,9.16
2017-11-08T21:31:38.463Z,9.23
2017-11-08T21:34:08.221Z,9.15
2017-11-08T21:36:38.796Z,9.20
2017-11-08T21:39:09.429Z,9.17
2017-11-08T21:41:39.210Z,9.22
2017-11-08T21:44:08.634Z,9.27
2017-11-08T21:46:38.337Z,9.29
2017-11-08T21:49:07.474Z,9.14
2017-11-08T21:51:36.377Z,8.65
2017-11-08T21:54:06.496Z,8.33
2017-11-08T21:56:34.858Z,8.33
2017-11-08T21:59:03.173Z,8.34
2017-11-08T22:01:31.478Z,8.40
2017-11-08T22:03:59.860Z,8.39
2017-11-08T22:06:28.176Z,8.34
2017-11-08T22:08:56.482Z,7.76
2017-11-08T22:11:24.781Z,7.94
2017-11-08T22:13:53.073Z,7.80
2017-11-08T22:16:21.357Z,7.67
2017-11-08T22:18:49.643Z,7.76
2017-11-08T22:21:18.693Z,7.84
2017-11-08T22:23:46.960Z,7.94
2017-11-08T22:26:15.238Z,7.94
2017-11-08T22:28:43.521Z,7.92
2017-11-08T22:31:12.364Z,7.69
2017-11-08T22:33:41.411Z,7.67
2017-11-08T22:36:09.705Z,7.58
2017-11-08T22:38:37.998Z,7.71
2017-11-08T22:41:06.300Z,7.70
2017-11-08T22:43:35.359Z,7.71
2017-11-08T22:46:03.652Z,7.79
2017-11-08T22:48:31.950Z,7.91
2017-11-08T22:51:00.269Z,8.02
2017-11-08T22:53:28.558Z,8.01
2017-11-08T22:55:56.856Z,8.04
2017-11-08T22:58:25.146Z,8.03
2017-11-08T23:00:53.865Z,8.14
2017-11-08T23:03:22.177Z,8.06
2017-11-08T23:05:50.466Z,8.20
2017-11-08T23:08:18.750Z,8.27
2017-11-08T23:10:47.058Z,8.27
2017-11-08T23:13:15.352Z,8.23
2017-11-08T23:15:43.642Z,7.53
2017-11-08T23:18:11.931Z,7.77
2017-11-08T23:20:40.233Z,7.82
2017-11-08T23:23:09.281Z,8.01
2017-11-08T23:25:37.589Z,8.26
2017-11-08T23:28:06.344Z,8.35
2017-11-08T23:30:34.619Z,8.58
2017-11-08T23:33:02.887Z,8.73
2017-11-08T23:35:31.159Z,8.86
2017-11-08T23:37:59.434Z,8.95
2017-11-08T23:40:27.725Z,8.74
2017-11-08T23:42:56.026Z,8.79
2017-11-08T23:45:24.323Z,8.81
2017-11-08T23:47:53.777Z,8.95
2017-11-08T23:50:22.929Z,8.82
2017-11-08T23:52:51.977Z,8.68
2017-11-08T23:55:20.266Z,8.59
2017-11-08T23:57:48.549Z,8.79
